createdAt,value
2022-08-17T00:02:26.250Z,5.50
2022-08-17T00:04:54.703Z,6.00
2022-08-17T00:07:21.906Z,5.63
2022-08-17T00:09:48.550Z,5.73
2022-08-17T00:12:41.578Z,5.67
2022-08-17T00:15:05.271Z,5.60
2022-08-17T00:17:31.935Z,5.30
2022-08-17T00:20:00.032Z,5.70
2022-08-17T00:22:33.972Z,5.73
2022-08-17T00:25:07.695Z,5.13
2022-08-17T00:27:35.205Z,5.40
2022-08-17T00:30:02.045Z,5.77
2022-08-17T00:33:15.123Z,6.00
2022-08-17T00:35:18.252Z,5.30
2022-08-17T00:37:45.137Z,5.20
2022-08-17T00:40:14.999Z,5.67
2022-08-17T00:42:43.571Z,5.10
2022-08-17T00:45:12.646Z,4.70
2022-08-17T00:47:39.905Z,4.90
2022-08-17T00:50:10.290Z,4.90
2022-08-17T00:52:42.303Z,5.07
2022-08-17T00:55:10.302Z,5.40
2022-08-17T00:57:42.784Z,4.93
2022-08-17T01:00:26.447Z,5.53
2022-08-17T01:03:06.322Z,5.07
2022-08-17T01:05:38.209Z,4.83
2022-08-17T01:08:13.270Z,4.73
2022-08-17T01:10:58.798Z,5.10
2022-08-17T01:13:41.990Z,5.97
2022-08-17T01:16:15.963Z,5.60
2022-08-17T01:18:45.369Z,5.00
2022-08-17T01:21:21.129Z,5.40
2022-08-17T01:23:47.898Z,5.30
2022-08-17T01:26:14.705Z,5.07
2022-08-17T01:28:54.542Z,4.57
2022-08-17T01:31:24.480Z,5.50
2022-08-17T01:33:51.405Z,5.27
2022-08-17T01:36:18.155Z,5.10
2022-08-17T01:38:45.003Z,5.70
2022-08-17T01:41:15.422Z,5.23
2022-08-17T01:43:51.824Z,5.27
2022-08-17T01:46:27.007Z,5.00
2022-08-17T01:48:55.174Z,5.10
2022-08-17T01:51:22.149Z,4.63
2022-08-17T01:53:52.935Z,4.87
2022-08-17T01:56:23.133Z,4.43
2022-08-17T01:58:50.382Z,5.10
2022-08-17T02:01:20.509Z,5.10
2022-08-17T02:03:59.425Z,4.53
2022-08-17T02:06:45.375Z,5.20
2022-08-17T02:09:22.342Z,4.70
2022-08-17T02:11:50.210Z,4.20
2022-08-17T02:14:17.874Z,4.40
2022-08-17T02:16:44.580Z,6.13
2022-08-17T02:19:15.573Z,4.60
2022-08-17T02:21:45.211Z,4.60
2022-08-17T02:24:17.598Z,4.60
2022-08-17T02:27:04.683Z,4.80
2022-08-17T02:29:31.570Z,4.70
2022-08-17T02:31:58.532Z,4.40
2022-08-17T02:34:25.706Z,4.27
2022-08-17T02:36:53.308Z,4.40
2022-08-17T02:39:20.154Z,4.60
2022-08-17T02:41:47.026Z,4.20
2022-08-17T02:44:13.721Z,4.50
2022-08-17T02:47:00.775Z,4.20
2022-08-17T02:49:27.447Z,4.80
2022-08-17T02:51:54.121Z,4.13
2022-08-17T02:54:40.183Z,5.17
2022-08-17T02:57:07.407Z,4.20
2022-08-17T02:59:34.045Z,5.20
2022-08-17T03:02:02.542Z,4.90
2022-08-17T03:04:29.259Z,4.53
2022-08-17T03:06:56.162Z,4.23
2022-08-17T03:09:23.920Z,4.43
2022-08-17T03:11:51.821Z,4.37
2022-08-17T03:14:25.982Z,4.47
2022-08-17T03:16:53.098Z,4.97
2022-08-17T03:19:19.751Z,5.00
2022-08-17T03:21:46.398Z,4.73
2022-08-17T03:24:21.784Z,4.47
2022-08-17T03:26:55.629Z,4.30
2022-08-17T03:29:22.371Z,4.77
2022-08-17T03:31:49.754Z,5.33
2022-08-17T03:34:17.271Z,4.70
2022-08-17T03:36:44.446Z,4.60
2022-08-17T03:39:11.156Z,5.10
2022-08-17T03:41:39.068Z,4.93
2022-08-17T03:44:05.866Z,4.90
2022-08-17T03:46:51.481Z,5.00
2022-08-17T03:49:36.936Z,5.17
2022-08-17T03:52:22.262Z,5.00
2022-08-17T03:55:07.830Z,5.33
2022-08-17T03:57:34.573Z,5.80
2022-08-17T04:00:01.217Z,5.20
2022-08-17T04:02:31.231Z,4.63
2022-08-17T04:04:58.445Z,5.10
2022-08-17T04:07:28.683Z,5.20
2022-08-17T04:09:55.568Z,5.10
2022-08-17T04:12:25.751Z,4.63
2022-08-17T04:14:55.065Z,5.13
2022-08-17T04:17:24.916Z,5.50
2022-08-17T04:19:52.133Z,5.53
2022-08-17T04:22:31.431Z,4.43
2022-08-17T04:25:05.240Z,4.90
2022-08-17T04:27:32.129Z,5.70
2022-08-17T04:29:58.830Z,5.27
2022-08-17T04:33:00.844Z,4.93
2022-08-17T04:35:12.347Z,5.13
2022-08-17T04:37:38.987Z,5.50
2022-08-17T04:40:27.299Z,4.67
2022-08-17T04:43:09.075Z,5.30
2022-08-17T04:45:55.037Z,4.90
2022-08-17T04:48:33.373Z,4.60
2022-08-17T04:51:10.873Z,5.80
2022-08-17T04:53:39.214Z,6.00
2022-08-17T04:56:06.250Z,5.07
2022-08-17T04:58:32.986Z,5.13
2022-08-17T05:01:00.146Z,4.90
2022-08-17T05:03:27.102Z,4.40
2022-08-17T05:05:54.110Z,5.07
2022-08-17T05:08:21.262Z,5.40
2022-08-17T05:10:49.274Z,4.90
2022-08-17T05:13:19.708Z,5.87
2022-08-17T05:15:48.086Z,5.23
2022-08-17T05:18:17.371Z,5.40
2022-08-17T05:20:45.071Z,5.17
2022-08-17T05:23:14.805Z,5.13
2022-08-17T05:25:46.772Z,5.03
2022-08-17T05:28:16.134Z,5.50
2022-08-17T05:30:44.236Z,4.60
2022-08-17T05:33:14.799Z,5.10
2022-08-17T05:35:49.861Z,5.50
2022-08-17T05:38:19.716Z,5.03
2022-08-17T05:40:47.114Z,4.67
2022-08-17T05:43:23.226Z,4.70
2022-08-17T05:46:19.110Z,4.60
2022-08-17T05:48:51.954Z,4.93
2022-08-17T05:51:55.658Z,5.07
2022-08-17T05:54:29.677Z,5.10
2022-08-17T05:57:15.296Z,4.90
2022-08-17T06:00:01.772Z,5.10
2022-08-17T06:03:02.205Z,5.03
2022-08-17T06:06:00.365Z,4.90
2022-08-17T06:08:51.485Z,5.50
2022-08-17T06:11:46.852Z,4.60
2022-08-17T06:14:38.083Z,5.10
2022-08-17T06:17:11.516Z,5.30
2022-08-17T06:19:40.494Z,4.50
2022-08-17T06:22:09.787Z,4.73
2022-08-17T06:24:39.399Z,5.00
2022-08-17T06:27:19.715Z,4.80
2022-08-17T06:30:16.407Z,4.70
2022-08-17T06:32:47.402Z,4.33
2022-08-17T06:35:31.956Z,4.50
2022-08-17T06:38:37.475Z,4.90
2022-08-17T06:41:26.697Z,5.57
2022-08-17T06:44:50.310Z,4.33
2022-08-17T06:47:29.344Z,4.20
2022-08-17T06:50:09.083Z,5.20
2022-08-17T06:52:48.442Z,5.07
2022-08-17T06:55:26.169Z,4.93
2022-08-17T06:57:59.099Z,4.70
2022-08-17T07:00:33.514Z,5.07
2022-08-17T07:03:28.205Z,4.27
2022-08-17T07:06:18.295Z,4.90
2022-08-17T07:09:05.269Z,5.70
2022-08-17T07:11:55.177Z,4.50
2022-08-17T07:14:30.837Z,4.60
2022-08-17T07:17:01.291Z,5.23
2022-08-17T07:19:32.665Z,4.80
2022-08-17T07:22:24.359Z,5.30
2022-08-17T07:24:58.442Z,5.07
2022-08-17T07:27:28.542Z,5.10
2022-08-17T07:30:08.119Z,4.90
2022-08-17T07:32:43.849Z,4.70
2022-08-17T07:35:15.703Z,4.90
2022-08-17T07:38:24.307Z,4.90
2022-08-17T07:41:02.496Z,5.07
2022-08-17T07:43:31.887Z,4.30
2022-08-17T07:46:24.491Z,4.33
2022-08-17T07:49:03.307Z,4.80
2022-08-17T07:51:37.832Z,4.80
2022-08-17T07:54:22.717Z,4.87
2022-08-17T07:57:00.444Z,4.73
2022-08-17T07:59:36.200Z,5.27
2022-08-17T08:02:31.766Z,4.90
2022-08-17T08:05:09.014Z,4.70
2022-08-17T08:08:25.921Z,4.40
2022-08-17T08:11:02.986Z,5.23
2022-08-17T08:13:32.079Z,5.20
2022-08-17T08:16:16.963Z,5.10
2022-08-17T08:18:55.542Z,5.57
2022-08-17T08:21:36.114Z,6.63
2022-08-17T08:24:21.505Z,7.10
2022-08-17T08:27:04.137Z,8.20
2022-08-17T08:29:53.818Z,8.57
2022-08-17T08:32:28.997Z,8.70
2022-08-17T08:35:17.289Z,9.60
2022-08-17T08:37:51.186Z,9.60
2022-08-17T08:40:50.267Z,9.23
2022-08-17T08:43:36.333Z,9.30
2022-08-17T08:46:25.989Z,10.03
2022-08-17T08:49:59.532Z,9.67
2022-08-17T08:52:58.392Z,9.70
2022-08-17T08:55:44.343Z,9.87
2022-08-17T08:58:44.143Z,9.70
2022-08-17T09:01:25.270Z,10.30
2022-08-17T09:04:12.036Z,9.73
2022-08-17T09:07:09.942Z,9.63
2022-08-17T09:09:54.177Z,10.67
2022-08-17T09:12:34.511Z,10.23
2022-08-17T09:15:10.855Z,11.17
2022-08-17T09:19:01.230Z,9.83
2022-08-17T09:21:11.245Z,10.10
2022-08-17T09:24:07.908Z,11.27
2022-08-17T09:26:48.445Z,10.10
2022-08-17T09:29:17.039Z,10.43
2022-08-17T09:32:03.961Z,10.90
2022-08-17T09:34:54.735Z,9.67
2022-08-17T09:37:35.356Z,10.90
2022-08-17T09:40:23.283Z,9.17
2022-08-17T09:42:55.360Z,11.57
2022-08-17T09:45:25.173Z,10.70
2022-08-17T09:48:04.677Z,10.20
2022-08-17T09:51:03.528Z,10.47
2022-08-17T09:53:24.587Z,10.37
2022-08-17T09:56:14.126Z,10.53
2022-08-17T09:58:56.324Z,11.57
2022-08-17T10:01:42.390Z,11.83
2022-08-17T10:04:35.972Z,10.47
2022-08-17T10:07:36.615Z,11.60
2022-08-17T10:10:14.565Z,11.03
2022-08-17T10:13:06.159Z,11.80
2022-08-17T10:16:03.794Z,13.10
2022-08-17T10:19:10.171Z,12.80
2022-08-17T10:22:01.214Z,13.60
2022-08-17T10:25:23.974Z,12.10
2022-08-17T10:27:56.581Z,13.00
2022-08-17T10:30:27.245Z,12.30
2022-08-17T10:33:06.648Z,13.70
2022-08-17T10:35:45.169Z,13.00
2022-08-17T10:38:25.323Z,13.07
2022-08-17T10:40:59.017Z,12.77
2022-08-17T10:43:55.850Z,14.17
2022-08-17T10:46:52.304Z,13.37
2022-08-17T10:49:18.956Z,12.90
2022-08-17T10:51:54.866Z,13.90
2022-08-17T10:54:24.671Z,13.40
2022-08-17T10:56:56.765Z,13.27
2022-08-17T10:59:43.656Z,14.63
2022-08-17T11:02:19.319Z,14.40
2022-08-17T11:05:06.837Z,14.53
2022-08-17T11:07:48.818Z,14.37
2022-08-17T11:10:30.298Z,14.60
2022-08-17T11:13:19.838Z,13.30
2022-08-17T11:16:17.978Z,12.97
2022-08-17T11:19:21.142Z,14.17
2022-08-17T11:22:21.662Z,15.70
2022-08-17T11:24:51.258Z,15.10
2022-08-17T11:27:29.694Z,16.47
2022-08-17T11:30:06.867Z,15.83
2022-08-17T11:32:47.610Z,14.47
2022-08-17T11:35:21.283Z,15.20
2022-08-17T11:38:20.991Z,14.37
2022-08-17T11:41:12.571Z,14.20
2022-08-17T11:44:10.406Z,15.07
2022-08-17T11:47:17.870Z,15.50
2022-08-17T11:50:27.112Z,18.33
2022-08-17T11:52:55.162Z,15.57
2022-08-17T11:55:38.477Z,13.40
2022-08-17T11:58:29.032Z,14.70
2022-08-17T12:00:58.769Z,15.60
2022-08-17T12:03:54.063Z,15.30
2022-08-17T12:06:42.213Z,17.67
2022-08-17T12:09:34.435Z,17.27
2022-08-17T12:12:14.415Z,15.70
2022-08-17T12:15:09.741Z,15.57
2022-08-17T12:17:40.815Z,16.23
2022-08-17T12:20:29.018Z,15.60
2022-08-17T12:23:12.333Z,17.60
2022-08-17T12:25:51.294Z,17.13
2022-08-17T12:28:33.397Z,17.73
2022-08-17T12:31:13.065Z,16.00
2022-08-17T12:33:44.295Z,17.13
2022-08-17T12:36:15.615Z,17.30
2022-08-17T12:38:51.135Z,17.50
2022-08-17T12:41:40.746Z,17.60
2022-08-17T12:44:21.749Z,16.50
2022-08-17T12:46:53.978Z,16.80
2022-08-17T12:49:26.379Z,18.33
2022-08-17T12:52:03.222Z,16.67
2022-08-17T12:54:38.457Z,15.00
2022-08-17T12:57:18.804Z,14.10
2022-08-17T12:59:50.333Z,13.03
2022-08-17T13:02:28.234Z,18.27
2022-08-17T13:04:58.352Z,19.00
2022-08-17T13:07:31.500Z,17.90
2022-08-17T13:09:58.546Z,16.93
2022-08-17T13:12:30.992Z,15.10
2022-08-17T13:14:58.126Z,16.20
2022-08-17T13:17:34.673Z,15.53
2022-08-17T13:20:03.298Z,14.23
2022-08-17T13:22:32.337Z,17.53
2022-08-17T13:25:05.203Z,15.10
2022-08-17T13:27:33.053Z,16.30
2022-08-17T13:30:10.335Z,17.17
2022-08-17T13:32:45.646Z,16.23
2022-08-17T13:35:39.283Z,15.70
2022-08-17T13:38:13.333Z,16.80
2022-08-17T13:40:43.976Z,16.80
2022-08-17T13:43:11.899Z,16.47
2022-08-17T13:45:51.198Z,18.47
2022-08-17T13:48:32.472Z,16.60
2022-08-17T13:50:59.502Z,17.00
2022-08-17T13:53:29.761Z,16.53
2022-08-17T13:56:33.511Z,16.43
2022-08-17T13:59:48.179Z,18.87
2022-08-17T14:02:13.152Z,17.40
2022-08-17T14:04:41.562Z,18.40
2022-08-17T14:07:12.789Z,19.20
2022-08-17T14:09:51.737Z,19.70
2022-08-17T14:12:21.591Z,19.10
2022-08-17T14:14:49.619Z,18.67
2022-08-17T14:17:26.599Z,19.53
2022-08-17T14:19:53.255Z,18.23
2022-08-17T14:22:27.328Z,19.80
2022-08-17T14:24:57.776Z,19.73
2022-08-17T14:27:27.879Z,21.13
2022-08-17T14:29:56.287Z,20.80
2022-08-17T14:32:26.543Z,20.83
2022-08-17T14:34:54.715Z,19.70
2022-08-17T14:37:22.417Z,21.57
2022-08-17T14:39:49.408Z,19.37
2022-08-17T14:42:18.403Z,21.23
2022-08-17T14:44:45.103Z,21.60
2022-08-17T14:47:15.760Z,21.30
2022-08-17T14:49:43.595Z,21.20
2022-08-17T14:52:16.729Z,21.43
2022-08-17T14:54:45.789Z,21.67
2022-08-17T14:57:23.270Z,23.77
2022-08-17T14:59:59.986Z,24.53
2022-08-17T15:02:29.776Z,23.97
2022-08-17T15:05:03.358Z,23.33
2022-08-17T15:07:31.119Z,24.57
2022-08-17T15:10:02.138Z,24.27
2022-08-17T15:12:33.137Z,27.80
2022-08-17T15:15:01.472Z,25.13
2022-08-17T15:17:43.698Z,24.80
2022-08-17T15:20:19.296Z,23.97
2022-08-17T15:22:49.595Z,26.73
2022-08-17T15:25:19.279Z,23.43
2022-08-17T15:27:46.272Z,25.30
2022-08-17T15:30:13.385Z,24.07
2022-08-17T15:32:51.241Z,25.10
2022-08-17T15:35:27.759Z,24.90
2022-08-17T15:38:06.107Z,24.30
2022-08-17T15:40:36.663Z,23.67
2022-08-17T15:43:08.382Z,26.53
2022-08-17T15:45:35.282Z,24.03
2022-08-17T15:48:02.313Z,24.27
2022-08-17T15:50:29.071Z,24.57
2022-08-17T15:52:58.355Z,24.00
2022-08-17T15:55:27.778Z,21.80
2022-08-17T15:57:54.543Z,22.87
2022-08-17T16:00:23.910Z,21.57
2022-08-17T16:03:45.182Z,21.60
2022-08-17T16:05:37.709Z,23.50
2022-08-17T16:08:07.401Z,22.93
2022-08-17T16:10:35.577Z,22.10
2022-08-17T16:13:03.784Z,22.43
2022-08-17T16:15:33.672Z,24.40
2022-08-17T16:18:00.406Z,23.20
2022-08-17T16:20:27.591Z,18.83
2022-08-17T16:22:55.173Z,19.37
2022-08-17T16:25:38.438Z,19.70
2022-08-17T16:28:17.929Z,19.50
2022-08-17T16:30:45.431Z,20.83
2022-08-17T16:33:12.531Z,21.40
2022-08-17T16:35:39.688Z,22.77
2022-08-17T16:38:07.251Z,22.47
2022-08-17T16:40:36.068Z,23.17
2022-08-17T16:43:03.762Z,22.50
2022-08-17T16:45:36.558Z,22.10
2022-08-17T16:48:04.399Z,21.50
2022-08-17T16:50:31.929Z,21.97
2022-08-17T16:53:07.719Z,20.87
2022-08-17T16:55:37.315Z,21.40
2022-08-17T16:58:05.277Z,23.00
2022-08-17T17:00:33.860Z,22.10
2022-08-17T17:03:19.528Z,21.50
2022-08-17T17:06:08.632Z,22.27
2022-08-17T17:08:46.539Z,20.33
2022-08-17T17:11:33.974Z,22.33
2022-08-17T17:14:05.903Z,20.40
2022-08-17T17:16:45.726Z,20.70
2022-08-17T17:19:19.503Z,21.03
2022-08-17T17:22:15.106Z,20.10
2022-08-17T17:24:50.702Z,24.00
2022-08-17T17:27:42.438Z,21.40
2022-08-17T17:30:25.715Z,22.70
2022-08-17T17:33:17.384Z,22.10
2022-08-17T17:35:52.079Z,21.87
2022-08-17T17:38:29.017Z,21.57
2022-08-17T17:41:02.511Z,23.50
2022-08-17T17:43:40.296Z,21.40
2022-08-17T17:46:27.870Z,22.73
2022-08-17T17:48:56.625Z,21.87
2022-08-17T17:51:45.573Z,22.43
2022-08-17T17:54:39.530Z,23.53
2022-08-17T17:57:24.701Z,23.70
2022-08-17T18:00:10.043Z,23.50
2022-08-17T18:03:01.214Z,23.37
2022-08-17T18:05:45.914Z,24.40
2022-08-17T18:08:42.533Z,24.77
2022-08-17T18:11:25.048Z,25.50
2022-08-17T18:14:14.708Z,25.47
2022-08-17T18:16:43.351Z,25.37
2022-08-17T18:19:21.397Z,26.60
2022-08-17T18:21:56.160Z,25.90
2022-08-17T18:24:42.950Z,26.50
2022-08-17T18:27:27.725Z,23.27
2022-08-17T18:29:56.674Z,24.73
2022-08-17T18:32:26.112Z,23.47
2022-08-17T18:35:27.377Z,25.50
2022-08-17T18:38:19.391Z,25.60
2022-08-17T18:40:56.333Z,24.73
2022-08-17T18:43:44.299Z,22.40
2022-08-17T18:46:29.020Z,23.90
2022-08-17T18:49:00.284Z,24.53
2022-08-17T18:51:41.851Z,25.10
2022-08-17T18:54:15.564Z,25.93
2022-08-17T18:56:52.457Z,24.80
2022-08-17T18:59:31.309Z,24.40
2022-08-17T19:02:28.372Z,24.60
2022-08-17T19:05:07.825Z,25.23
2022-08-17T19:07:45.045Z,26.83
2022-08-17T19:10:23.087Z,25.37
2022-08-17T19:13:00.776Z,24.60
2022-08-17T19:15:34.343Z,24.53
2022-08-17T19:18:13.326Z,25.17
2022-08-17T19:20:46.194Z,23.70
2022-08-17T19:23:24.861Z,22.63
2022-08-17T19:25:58.343Z,22.57
2022-08-17T19:28:27.528Z,23.30
2022-08-17T19:31:01.862Z,23.00
2022-08-17T19:33:31.123Z,23.13
2022-08-17T19:36:06.260Z,20.83
2022-08-17T19:38:41.995Z,22.67
2022-08-17T19:41:28.475Z,22.53
2022-08-17T19:44:08.138Z,22.47
2022-08-17T19:47:05.993Z,20.03
2022-08-17T19:49:51.759Z,20.60
2022-08-17T19:52:40.315Z,20.87
2022-08-17T19:55:20.549Z,21.17
2022-08-17T19:58:10.923Z,20.63
2022-08-17T20:00:50.212Z,19.60
2022-08-17T20:03:35.194Z,20.53
2022-08-17T20:06:12.932Z,21.03
2022-08-17T20:09:16.726Z,21.00
2022-08-17T20:11:56.465Z,22.20
2022-08-17T20:14:53.278Z,22.67
2022-08-17T20:17:29.303Z,21.87
2022-08-17T20:20:19.845Z,22.27
2022-08-17T20:23:07.107Z,20.50
2022-08-17T20:25:43.867Z,24.93
2022-08-17T20:28:29.453Z,21.80
2022-08-17T20:30:57.389Z,23.50
2022-08-17T20:33:34.198Z,23.83
2022-08-17T20:36:18.033Z,23.37
2022-08-17T20:38:56.931Z,23.90
2022-08-17T20:41:30.728Z,23.50
2022-08-17T20:43:57.405Z,25.93
2022-08-17T20:46:36.583Z,26.53
2022-08-17T20:49:16.344Z,26.77
2022-08-17T20:52:09.287Z,27.80
2022-08-17T20:54:48.895Z,27.80
2022-08-17T20:57:31.188Z,26.00
2022-08-17T20:59:59.667Z,27.20
2022-08-17T21:02:27.425Z,29.10
2022-08-17T21:04:54.431Z,26.10
2022-08-17T21:07:32.962Z,27.03
2022-08-17T21:10:17.045Z,25.87
2022-08-17T21:12:47.809Z,25.30
2022-08-17T21:15:39.450Z,24.07
2022-08-17T21:18:23.297Z,26.73
2022-08-17T21:21:17.800Z,29.40
2022-08-17T21:23:50.546Z,28.03
2022-08-17T21:26:50.328Z,26.63
2022-08-17T21:29:30.943Z,26.43
2022-08-17T21:32:00.644Z,24.30
2022-08-17T21:34:36.547Z,27.90
2022-08-17T21:37:26.106Z,29.17
2022-08-17T21:40:00.677Z,29.47
2022-08-17T21:42:31.980Z,28.10
2022-08-17T21:45:20.437Z,28.37
2022-08-17T21:48:08.018Z,29.97
2022-08-17T21:50:35.558Z,28.73
2022-08-17T21:53:04.128Z,29.17
2022-08-17T21:55:33.846Z,31.00
2022-08-17T21:58:13.736Z,30.47
2022-08-17T22:00:44.293Z,34.70
2022-08-17T22:03:24.086Z,32.77
2022-08-17T22:05:51.213Z,34.60
2022-08-17T22:08:21.240Z,33.40
2022-08-17T22:10:50.627Z,33.07
2022-08-17T22:13:17.713Z,32.10
2022-08-17T22:15:50.066Z,31.17
2022-08-17T22:18:24.939Z,33.80
2022-08-17T22:20:58.535Z,32.57
2022-08-17T22:23:56.161Z,30.63
2022-08-17T22:26:25.284Z,27.43
2022-08-17T22:28:57.480Z,28.47
2022-08-17T22:31:46.907Z,33.00
2022-08-17T22:34:15.085Z,31.43
2022-08-17T22:36:42.419Z,29.90
2022-08-17T22:39:09.022Z,29.83
2022-08-17T22:41:41.406Z,29.03
2022-08-17T22:44:25.973Z,27.70
2022-08-17T22:47:11.268Z,28.73
2022-08-17T22:49:57.486Z,29.67
2022-08-17T22:53:02.030Z,31.07
2022-08-17T22:55:50.416Z,30.57
2022-08-17T22:58:40.106Z,30.33
2022-08-17T23:01:28.400Z,34.77
2022-08-17T23:04:19.855Z,34.43
2022-08-17T23:06:46.795Z,34.60
2022-08-17T23:09:13.763Z,34.60
2022-08-17T23:11:50.013Z,33.40
2022-08-17T23:14:19.664Z,32.00
2022-08-17T23:16:47.121Z,32.60
2022-08-17T23:19:16.343Z,32.87
2022-08-17T23:21:46.633Z,32.63
2022-08-17T23:24:22.084Z,32.70
2022-08-17T23:26:48.914Z,32.50
2022-08-17T23:29:15.888Z,33.00
2022-08-17T23:31:42.767Z,32.30
2022-08-17T23:34:12.957Z,32.80
2022-08-17T23:36:39.859Z,30.13
2022-08-17T23:39:07.725Z,32.33
2022-08-17T23:41:40.067Z,30.70
2022-08-17T23:44:07.150Z,31.93
2022-08-17T23:46:34.899Z,33.87
2022-08-17T23:49:01.774Z,36.20
2022-08-17T23:51:37.253Z,37.40
2022-08-17T23:54:22.477Z,36.47
2022-08-17T23:56:49.530Z,34.37
2022-08-17T23:59:22.410Z,35.17
